Runeberg, Minnesota
Current Conditions -  °F | °C
As of 9:53 AM on Thursday 23 Oct 2014 (Local Time) from KPKD Reporting Station
Haze Haze  
Wind Chill: 45°   Ceiling: 300
Heat Index: 49°   Visibility: 5mi
Dew Point: 48°   Wind: 8mph
Humidity: 97%   Direction: 180°S
Pressure: 29.94"   Gusts: NA
Location:  46.7591°N, 94.9748°W
Report Text: KPKD 231453Z AUTO 18007KT 5SM BR OVC003 09/09 A2994 RMK AO2 SLP147 T00940089 53006 TSNO
Loading
Personal Weather Stations






























Interactive Weather Map
Tropical Storm Tracking
New forecast layout! Learn more

10-Day Weather Forecast

Advertisements
Track Severe Weather on mobile